createdAt,value
2023-02-09T00:01:21.824Z,46.80
2023-02-09T00:03:49.279Z,36.75
2023-02-09T00:06:20.096Z,45.28
2023-02-09T00:08:47.430Z,30.23
2023-02-09T00:11:45.144Z,40.85
2023-02-09T00:14:14.116Z,32.83
2023-02-09T00:16:41.967Z,45.38
2023-02-09T00:19:10.032Z,32.10
2023-02-09T00:21:37.452Z,42.95
2023-02-09T00:24:05.275Z,52.20
2023-02-09T00:26:33.744Z,41.97
2023-02-09T00:29:01.140Z,47.55
2023-02-09T00:31:28.702Z,36.92
2023-02-09T00:33:56.121Z,27.08
2023-02-09T00:36:23.680Z,54.80
2023-02-09T00:38:51.094Z,46.55
2023-02-09T00:41:38.811Z,50.97
2023-02-09T00:44:06.274Z,22.73
2023-02-09T00:46:33.684Z,41.33
2023-02-09T00:49:01.144Z,37.75
2023-02-09T00:51:28.834Z,37.47
2023-02-09T00:53:57.016Z,32.95
2023-02-09T00:56:24.617Z,30.80
2023-02-09T00:58:52.114Z,39.53
2023-02-09T01:01:19.532Z,23.23
2023-02-09T01:03:47.504Z,23.27
2023-02-09T01:06:15.285Z,25.45
2023-02-09T01:08:43.408Z,19.25
2023-02-09T01:11:13.102Z,27.25
2023-02-09T01:13:41.271Z,19.92
2023-02-09T01:16:13.613Z,23.48
2023-02-09T01:18:44.524Z,27.85
2023-02-09T01:21:18.924Z,29.50
2023-02-09T01:23:47.902Z,19.83
2023-02-09T01:26:17.964Z,17.15
2023-02-09T01:28:50.081Z,22.92
2023-02-09T01:31:31.476Z,22.17
2023-02-09T01:34:01.266Z,26.97
2023-02-09T01:36:30.252Z,14.68
2023-02-09T01:39:00.498Z,27.15
2023-02-09T01:41:28.525Z,26.65
2023-02-09T01:43:57.957Z,29.38
2023-02-09T01:46:28.227Z,21.83
2023-02-09T01:49:02.962Z,27.63
2023-02-09T01:51:38.377Z,15.13
2023-02-09T01:54:10.999Z,19.42
2023-02-09T01:56:42.965Z,18.63
2023-02-09T01:59:11.257Z,11.80
2023-02-09T02:01:39.061Z,16.47
2023-02-09T02:04:06.834Z,18.45
2023-02-09T02:06:34.837Z,15.90
2023-02-09T02:09:11.535Z,15.27
2023-02-09T02:11:42.558Z,16.23
2023-02-09T02:14:55.460Z,16.17
2023-02-09T02:17:34.625Z,11.50
2023-02-09T02:20:39.281Z,10.80
2023-02-09T02:23:21.776Z,16.20
2023-02-09T02:26:01.573Z,17.33
2023-02-09T02:28:44.843Z,13.47
2023-02-09T02:31:35.545Z,16.70
2023-02-09T02:34:25.630Z,15.90
2023-02-09T02:37:05.422Z,12.27
2023-02-09T02:39:55.726Z,17.87
2023-02-09T02:42:50.553Z,19.37
2023-02-09T02:45:43.446Z,15.17
2023-02-09T02:48:49.941Z,15.23
2023-02-09T02:51:34.013Z,9.85
2023-02-09T02:54:07.086Z,21.13
2023-02-09T02:56:41.815Z,13.88
2023-02-09T02:59:13.332Z,12.63
2023-02-09T03:01:46.412Z,13.50
2023-02-09T03:04:15.005Z,7.07
2023-02-09T03:06:42.462Z,12.60
2023-02-09T03:09:09.964Z,8.30
2023-02-09T03:11:43.087Z,12.00
2023-02-09T03:14:18.886Z,12.80
2023-02-09T03:16:48.175Z,11.63
2023-02-09T03:19:27.454Z,9.27
2023-02-09T03:22:08.436Z,12.07
2023-02-09T03:24:44.694Z,13.80
2023-02-09T03:27:19.565Z,11.50
2023-02-09T03:29:50.223Z,6.53
2023-02-09T03:32:18.610Z,13.00
2023-02-09T03:34:46.276Z,18.90
2023-02-09T03:37:13.826Z,14.53
2023-02-09T03:39:42.164Z,12.97
2023-02-09T03:42:10.092Z,14.70
2023-02-09T03:44:37.435Z,13.03
2023-02-09T03:47:07.517Z,8.03
2023-02-09T03:49:41.123Z,6.40
2023-02-09T03:52:11.366Z,10.70
2023-02-09T03:54:38.779Z,12.13
2023-02-09T03:57:07.308Z,20.15
2023-02-09T03:59:36.785Z,16.85
2023-02-09T04:02:06.957Z,13.20
2023-02-09T04:04:34.989Z,13.83
2023-02-09T04:07:03.229Z,12.05
2023-02-09T04:09:30.698Z,17.40
2023-02-09T04:11:58.200Z,15.85
2023-02-09T04:14:25.586Z,21.23
2023-02-09T04:16:52.937Z,15.50
2023-02-09T04:19:20.417Z,20.23
2023-02-09T04:21:47.886Z,16.57
2023-02-09T04:24:15.241Z,21.38
2023-02-09T04:26:42.725Z,24.17
2023-02-09T04:29:10.246Z,22.57
2023-02-09T04:31:37.674Z,27.63
2023-02-09T04:34:05.099Z,21.97
2023-02-09T04:36:32.428Z,19.17
2023-02-09T04:38:59.804Z,22.47
2023-02-09T04:41:27.454Z,19.73
2023-02-09T04:43:54.944Z,26.75
2023-02-09T04:46:22.353Z,23.60
2023-02-09T04:48:49.801Z,33.08
2023-02-09T04:51:21.761Z,27.65
2023-02-09T04:53:49.264Z,20.83
2023-02-09T04:56:17.591Z,28.40
2023-02-09T04:59:04.245Z,22.67
2023-02-09T05:01:40.790Z,20.50
2023-02-09T05:04:08.280Z,32.57
2023-02-09T05:06:35.709Z,26.93
2023-02-09T05:09:03.500Z,26.27
2023-02-09T05:11:30.982Z,32.60
2023-02-09T05:16:31.429Z,25.93
2023-02-09T05:18:58.797Z,26.70
2023-02-09T05:21:26.471Z,30.70
2023-02-09T05:23:53.872Z,27.13
2023-02-09T05:26:21.204Z,25.33
2023-02-09T05:28:48.581Z,22.35
2023-02-09T05:31:18.043Z,26.13
2023-02-09T05:33:45.549Z,30.30
2023-02-09T05:36:13.246Z,29.37
2023-02-09T05:38:40.713Z,29.10
2023-02-09T05:41:10.890Z,28.33
2023-02-09T05:43:38.495Z,32.17
2023-02-09T05:46:08.289Z,29.60
2023-02-09T05:48:36.015Z,27.05
2023-02-09T05:51:03.418Z,28.40
2023-02-09T05:53:31.495Z,35.30
2023-02-09T05:55:59.422Z,32.20
2023-02-09T05:58:27.151Z,27.37
2023-02-09T06:00:57.061Z,29.73
2023-02-09T06:03:24.957Z,27.85
2023-02-09T06:05:52.792Z,33.85
2023-02-09T06:08:53.556Z,30.13
2023-02-09T06:11:26.376Z,27.25
2023-02-09T06:13:59.757Z,24.13
2023-02-09T06:16:36.351Z,37.73
2023-02-09T06:19:04.406Z,23.05
2023-02-09T06:22:17.227Z,27.83
2023-02-09T06:24:45.923Z,18.90
2023-02-09T06:27:16.026Z,27.80
2023-02-09T06:32:58.252Z,32.80
2023-02-09T06:35:29.934Z,20.08
2023-02-09T06:38:00.973Z,29.97
2023-02-09T06:41:17.662Z,28.33
2023-02-09T06:57:18.809Z,21.37
2023-02-09T07:00:32.649Z,31.45
2023-02-09T07:03:02.210Z,35.78
2023-02-09T07:05:31.764Z,28.17
2023-02-09T07:08:00.675Z,21.35
2023-02-09T07:10:29.113Z,26.70
2023-02-09T07:12:58.825Z,22.92
2023-02-09T07:15:26.497Z,24.77
2023-02-09T07:17:53.880Z,28.23
2023-02-09T07:20:21.431Z,21.02
2023-02-09T07:22:48.995Z,24.52
2023-02-09T07:25:16.742Z,25.20
2023-02-09T07:27:45.669Z,23.75
2023-02-09T07:30:14.113Z,22.27
2023-02-09T07:32:42.922Z,26.30
2023-02-09T07:35:10.371Z,26.50
2023-02-09T07:37:40.373Z,24.45
2023-02-09T07:40:08.320Z,23.60
2023-02-09T07:42:36.224Z,30.20
2023-02-09T07:45:03.898Z,24.67
2023-02-09T07:47:39.497Z,17.65
2023-02-09T07:50:07.285Z,21.77
2023-02-09T07:52:34.879Z,17.77
2023-02-09T07:55:02.389Z,26.40
2023-02-09T07:57:30.220Z,19.83
2023-02-09T07:59:57.922Z,26.88
2023-02-09T08:02:46.250Z,21.38
2023-02-09T08:31:57.536Z,21.40
2023-02-09T08:34:25.833Z,27.53
2023-02-09T08:37:15.803Z,17.52
2023-02-09T08:40:00.301Z,25.03
2023-02-09T08:42:32.044Z,23.67
2023-02-09T08:45:02.789Z,16.73
2023-02-09T08:47:40.001Z,17.73
2023-02-09T08:52:55.535Z,19.65
2023-02-09T08:55:23.406Z,21.77
2023-02-09T08:57:51.302Z,18.73
2023-02-09T09:00:20.600Z,19.73
2023-02-09T09:06:29.872Z,17.35
2023-02-09T09:09:34.663Z,26.23
2023-02-09T09:12:02.733Z,15.32
2023-02-09T09:18:14.678Z,19.97
2023-02-09T09:20:45.917Z,13.98
2023-02-09T09:23:15.305Z,16.35
2023-02-09T09:25:50.647Z,20.60
2023-02-09T09:28:24.833Z,24.25
2023-02-09T09:33:42.464Z,26.48
2023-02-09T09:36:16.408Z,24.35
2023-02-09T09:38:58.726Z,22.23
2023-02-09T09:41:37.982Z,21.23
2023-02-09T09:44:25.192Z,21.33
2023-02-09T09:47:16.934Z,24.20
2023-02-09T09:49:48.983Z,20.13
2023-02-09T09:52:38.205Z,21.10
2023-02-09T09:55:09.383Z,15.65
2023-02-09T09:58:19.645Z,23.58
2023-02-09T10:00:51.421Z,16.65
2023-02-09T10:03:24.723Z,22.27
2023-02-09T10:06:01.619Z,18.67
2023-02-09T10:08:35.746Z,21.57
2023-02-09T10:11:05.424Z,17.75
2023-02-09T10:13:39.343Z,17.98
2023-02-09T10:16:22.338Z,13.98
2023-02-09T10:18:55.804Z,17.45
2023-02-09T10:21:35.016Z,22.98
2023-02-09T10:24:37.376Z,16.77
2023-02-09T10:27:16.586Z,20.43
2023-02-09T10:29:44.773Z,17.83
2023-02-09T10:32:26.103Z,21.35
2023-02-09T10:34:58.413Z,19.77
2023-02-09T10:37:36.156Z,16.67
2023-02-09T10:40:22.106Z,19.77
2023-02-09T10:43:04.453Z,22.20
2023-02-09T11:02:41.194Z,18.27
2023-02-09T11:05:29.374Z,12.17
2023-02-09T11:08:21.094Z,19.23
2023-02-09T11:11:37.714Z,19.00
2023-02-09T11:15:14.504Z,15.77
2023-02-09T11:21:25.113Z,17.83
2023-02-09T11:26:54.223Z,16.80
2023-02-09T11:30:19.601Z,16.90
2023-02-09T11:33:03.199Z,12.77
2023-02-09T11:36:13.109Z,16.33
2023-02-09T11:44:20.687Z,21.48
2023-02-09T11:47:08.540Z,19.43
2023-02-09T11:49:52.074Z,20.98
2023-02-09T11:52:40.959Z,18.42
2023-02-09T11:55:32.193Z,15.82
2023-02-09T11:58:44.511Z,15.50
2023-02-09T12:01:42.352Z,15.52
2023-02-09T12:04:40.742Z,24.27
2023-02-09T12:11:28.930Z,18.20
2023-02-09T12:14:39.948Z,20.80
2023-02-09T12:17:45.543Z,16.17
2023-02-09T12:21:01.981Z,19.88
2023-02-09T12:23:38.002Z,14.85
2023-02-09T12:26:15.833Z,15.25
2023-02-09T12:29:20.533Z,14.00
2023-02-09T12:32:11.977Z,18.52
2023-02-09T12:34:52.869Z,18.57
2023-02-09T12:37:29.386Z,17.65
2023-02-09T12:40:21.976Z,14.75
2023-02-09T12:42:54.234Z,15.65
2023-02-09T12:45:31.378Z,18.35
2023-02-09T12:48:15.148Z,22.77
2023-02-09T12:50:42.769Z,19.92
2023-02-09T12:53:22.660Z,18.52
2023-02-09T12:56:29.140Z,21.75
2023-02-09T12:59:13.082Z,17.45
2023-02-09T13:02:08.427Z,16.60
2023-02-09T13:04:46.702Z,18.80
2023-02-09T13:07:38.093Z,15.73
2023-02-09T13:10:36.493Z,22.35
2023-02-09T13:13:12.547Z,22.63
2023-02-09T13:16:01.858Z,17.02
2023-02-09T13:18:43.580Z,27.02
2023-02-09T13:21:53.785Z,22.48
2023-02-09T13:24:31.543Z,21.13
2023-02-09T13:26:59.804Z,21.20
2023-02-09T13:29:30.377Z,11.05
2023-02-09T13:32:06.625Z,18.40
2023-02-09T13:35:17.667Z,14.55
2023-02-09T13:37:48.583Z,24.23
2023-02-09T13:41:13.385Z,15.63
2023-02-09T13:43:44.511Z,22.67
2023-02-09T13:46:26.141Z,16.85
2023-02-09T13:48:56.341Z,21.23
2023-02-09T13:51:25.152Z,20.42
2023-02-09T13:54:01.474Z,18.88
2023-02-09T13:56:31.152Z,16.60
2023-02-09T13:59:01.626Z,17.20
2023-02-09T14:01:33.058Z,24.80
2023-02-09T14:04:18.830Z,24.65
2023-02-09T14:07:01.731Z,19.23
2023-02-09T14:09:51.851Z,16.95
2023-02-09T14:12:47.159Z,20.48
2023-02-09T14:15:35.098Z,19.25
2023-02-09T14:18:02.894Z,21.38
2023-02-09T14:20:30.431Z,23.23
2023-02-09T14:23:03.119Z,22.37
2023-02-09T14:25:32.217Z,23.83
2023-02-09T14:28:01.946Z,17.10
2023-02-09T14:30:37.547Z,25.75
2023-02-09T14:33:08.184Z,26.20
2023-02-09T14:35:41.673Z,21.83
2023-02-09T14:38:38.321Z,19.15
2023-02-09T14:41:39.297Z,14.55
2023-02-09T14:44:17.796Z,17.92
2023-02-09T14:46:55.002Z,24.58
2023-02-09T14:49:23.816Z,17.42
2023-02-09T14:52:15.072Z,23.00
2023-02-09T14:54:48.858Z,23.60
2023-02-09T14:57:17.948Z,23.85
2023-02-09T14:59:45.546Z,23.52
2023-02-09T15:02:19.907Z,21.95
2023-02-09T15:04:47.949Z,23.57
2023-02-09T15:07:24.055Z,23.67
2023-02-09T15:09:53.234Z,24.38
2023-02-09T15:12:29.281Z,18.03
2023-02-09T15:14:59.712Z,23.58
2023-02-09T15:17:29.670Z,23.05
2023-02-09T15:19:59.988Z,25.73
2023-02-09T15:22:27.926Z,21.37
2023-02-09T15:24:58.077Z,21.25
2023-02-09T15:27:35.222Z,19.58
2023-02-09T15:30:05.944Z,22.95
2023-02-09T15:32:33.923Z,26.58
2023-02-09T15:35:02.041Z,25.63
2023-02-09T15:37:34.731Z,19.10
2023-02-09T15:40:55.896Z,23.95
2023-02-09T15:43:42.753Z,25.98
2023-02-09T15:46:29.333Z,25.70
2023-02-09T15:48:56.979Z,21.95
2023-02-09T15:51:27.608Z,24.37
2023-02-09T15:53:58.018Z,23.13
2023-02-09T15:56:25.585Z,21.00
2023-02-09T15:58:54.521Z,21.40
2023-02-09T16:01:22.157Z,22.38
2023-02-09T16:03:49.655Z,19.02
2023-02-09T16:06:18.827Z,23.23
2023-02-09T16:08:48.286Z,19.90
2023-02-09T16:11:27.626Z,24.27
2023-02-09T16:13:55.689Z,30.23
2023-02-09T16:16:25.484Z,26.27
2023-02-09T16:18:52.908Z,25.05
2023-02-09T16:21:34.176Z,17.55
2023-02-09T16:24:04.306Z,22.33
2023-02-09T16:26:35.287Z,22.98
2023-02-09T16:29:03.304Z,20.30
2023-02-09T16:31:31.912Z,24.63
2023-02-09T16:33:59.315Z,27.15
2023-02-09T16:36:29.164Z,22.53
2023-02-09T16:38:56.978Z,29.75
2023-02-09T16:41:42.859Z,20.02
2023-02-09T16:44:24.837Z,25.57
2023-02-09T16:46:55.516Z,23.37
2023-02-09T16:49:37.101Z,27.95
2023-02-09T16:52:21.752Z,29.47
2023-02-09T16:54:52.267Z,26.88
2023-02-09T16:57:21.384Z,16.27
2023-02-09T16:59:50.140Z,21.57
2023-02-09T17:02:39.761Z,14.40
2023-02-09T17:05:38.037Z,25.45
2023-02-09T17:08:25.907Z,23.75
2023-02-09T17:10:55.901Z,22.15
2023-02-09T17:13:23.561Z,29.13
2023-02-09T17:15:55.284Z,24.83
2023-02-09T17:18:26.335Z,17.90
2023-02-09T17:20:57.316Z,26.50
2023-02-09T17:23:27.271Z,19.02
2023-02-09T17:25:55.359Z,21.08
2023-02-09T17:28:28.073Z,27.73
2023-02-09T17:30:59.533Z,20.47
2023-02-09T17:33:33.644Z,19.58
2023-02-09T17:39:22.854Z,20.90
2023-02-09T17:41:50.804Z,18.00
2023-02-09T17:44:46.311Z,23.85
2023-02-09T17:50:06.381Z,13.23
2023-02-09T17:52:33.991Z,18.08
2023-02-09T17:55:01.439Z,24.38
2023-02-09T17:57:28.927Z,23.00
2023-02-09T17:59:56.457Z,13.00
2023-02-09T18:02:23.976Z,23.17
2023-02-09T18:04:51.737Z,26.60
2023-02-09T18:07:21.888Z,29.97
2023-02-09T18:09:49.497Z,28.60
2023-02-09T18:12:22.242Z,26.50
2023-02-09T18:14:49.606Z,17.23
2023-02-09T18:17:17.217Z,23.33
2023-02-09T18:19:44.710Z,26.55
2023-02-09T18:22:20.354Z,23.33
2023-02-09T18:24:48.966Z,20.90
2023-02-09T18:27:20.353Z,21.00
2023-02-09T18:29:47.966Z,25.63
2023-02-09T18:32:17.005Z,18.80
2023-02-09T18:34:44.637Z,18.27
2023-02-09T18:37:15.002Z,20.07
2023-02-09T18:39:46.914Z,23.10
2023-02-09T18:42:15.516Z,19.27
2023-02-09T18:44:42.977Z,16.07
2023-02-09T18:47:11.155Z,19.33
2023-02-09T18:49:39.083Z,17.50
2023-02-09T18:54:41.006Z,13.57
2023-02-09T18:57:08.322Z,16.50
2023-02-09T18:59:36.527Z,18.63
2023-02-09T19:02:04.015Z,22.50
2023-02-09T19:04:31.383Z,15.20
2023-02-09T19:06:59.034Z,24.50
2023-02-09T19:09:26.420Z,19.27
2023-02-09T19:11:53.865Z,19.50
2023-02-09T19:14:39.428Z,22.37
2023-02-09T19:17:11.563Z,27.90
2023-02-09T19:19:39.219Z,29.77
2023-02-09T19:22:07.064Z,21.63
2023-02-09T19:24:34.595Z,22.10
2023-02-09T19:27:02.002Z,25.60
2023-02-09T19:29:29.526Z,13.80
2023-02-09T19:31:56.993Z,26.40
2023-02-09T19:34:24.599Z,28.93
2023-02-09T19:36:51.913Z,34.07
2023-02-09T19:39:20.019Z,32.83
2023-02-09T19:41:49.215Z,19.03
2023-02-09T19:44:16.796Z,19.47
2023-02-09T19:46:44.264Z,36.07
2023-02-09T19:49:11.942Z,29.23
2023-02-09T19:51:39.366Z,37.57
2023-02-09T19:54:06.924Z,26.97
2023-02-09T19:56:34.603Z,24.70
2023-02-09T19:59:02.095Z,31.70
2023-02-09T20:01:31.522Z,34.27
2023-02-09T20:03:58.975Z,23.10
2023-02-09T20:06:26.559Z,26.40
2023-02-09T20:08:54.108Z,39.47
2023-02-09T20:11:21.703Z,35.90
2023-02-09T20:13:51.815Z,34.90
2023-02-09T20:16:25.599Z,24.33
2023-02-09T20:18:54.663Z,38.57
2023-02-09T20:21:24.075Z,30.33
2023-02-09T20:23:56.034Z,29.07
2023-02-09T20:26:30.031Z,36.40
2023-02-09T20:28:58.309Z,32.50
2023-02-09T20:31:29.357Z,39.95
2023-02-09T20:33:57.865Z,36.43
2023-02-09T20:36:25.802Z,39.33
2023-02-09T20:38:53.512Z,35.43
2023-02-09T20:41:21.790Z,20.17
2023-02-09T20:44:07.988Z,29.77
2023-02-09T20:46:54.867Z,38.15
2023-02-09T20:49:31.487Z,36.07
2023-02-09T20:51:58.960Z,28.03
2023-02-09T20:54:26.377Z,32.57
2023-02-09T20:56:53.739Z,32.53
2023-02-09T20:59:21.033Z,36.08
2023-02-09T21:01:48.956Z,17.38
2023-02-09T21:04:16.589Z,34.90
2023-02-09T21:06:44.757Z,32.05
2023-02-09T21:09:15.346Z,26.00
2023-02-09T21:11:42.987Z,27.08
2023-02-09T21:14:21.690Z,33.28
2023-02-09T21:16:56.485Z,31.08
2023-02-09T21:19:24.924Z,35.95
2023-02-09T21:21:52.528Z,24.63
2023-02-09T21:24:20.416Z,32.67
2023-02-09T21:26:48.225Z,30.85
2023-02-09T21:29:15.824Z,30.88
2023-02-09T21:31:43.460Z,26.27
2023-02-09T21:34:15.563Z,29.95
2023-02-09T21:36:43.307Z,35.85
2023-02-09T21:39:10.935Z,31.93
2023-02-09T21:41:57.008Z,30.88
2023-02-09T21:44:24.492Z,34.60
2023-02-09T21:46:52.468Z,26.63
2023-02-09T21:49:20.485Z,36.50
2023-02-09T21:51:47.910Z,27.15
2023-02-09T21:54:17.068Z,34.42
2023-02-09T21:56:44.973Z,24.30
2023-02-09T21:59:12.370Z,30.58
2023-02-09T22:01:41.184Z,26.23
2023-02-09T22:04:08.754Z,30.83
2023-02-09T22:06:36.104Z,38.83
2023-02-09T22:09:06.308Z,28.23
2023-02-09T22:11:34.043Z,24.53
2023-02-09T22:14:01.329Z,39.55
2023-02-09T22:16:29.669Z,34.45
2023-02-09T22:18:58.770Z,31.70
2023-02-09T22:21:26.388Z,32.17
2023-02-09T22:23:54.183Z,29.73
2023-02-09T22:26:21.720Z,33.22
2023-02-09T22:28:49.188Z,28.23
2023-02-09T22:31:20.774Z,38.93
2023-02-09T22:33:53.256Z,34.67
2023-02-09T22:36:21.829Z,39.03
2023-02-09T22:38:49.418Z,34.15
2023-02-09T22:41:22.497Z,28.85
2023-02-09T22:43:56.899Z,29.33
2023-02-09T22:46:30.545Z,34.97
2023-02-09T22:49:00.737Z,34.25
2023-02-09T22:51:30.020Z,30.93
2023-02-09T22:53:58.151Z,21.10
2023-02-09T22:56:26.291Z,24.38
2023-02-09T22:58:54.771Z,32.05
2023-02-09T23:01:22.822Z,33.93
2023-02-09T23:03:50.648Z,32.27
2023-02-09T23:06:20.776Z,24.10
2023-02-09T23:08:48.399Z,24.67
2023-02-09T23:11:17.711Z,24.17
2023-02-09T23:13:45.596Z,17.25
2023-02-09T23:16:22.482Z,29.88
2023-02-09T23:18:54.536Z,29.15
2023-02-09T23:21:25.104Z,33.90
2023-02-09T23:23:52.925Z,21.50
2023-02-09T23:26:21.413Z,26.70
2023-02-09T23:28:49.379Z,25.25
2023-02-09T23:31:18.763Z,21.23
2023-02-09T23:33:46.623Z,32.20
2023-02-09T23:36:19.523Z,29.90
2023-02-09T23:38:47.688Z,21.58
2023-02-09T23:41:17.468Z,29.13
2023-02-09T23:43:45.417Z,26.35
2023-02-09T23:46:15.532Z,30.33
2023-02-09T23:48:44.699Z,26.60
2023-02-09T23:51:14.693Z,29.43
2023-02-09T23:53:42.198Z,27.05
2023-02-09T23:56:09.804Z,30.13
2023-02-09T23:58:42.591Z,22.93
